sensor_id;sensor_type;location;lat;lon;timestamp;P1;durP1;ratioP1;P2;durP2;ratioP2
70953;SDS011;58618;47.490;8.736;2024-01-30T00:00:48;78.00;;;13.32;;
70953;SDS011;58618;47.490;8.736;2024-01-30T00:03:35;92.95;;;13.63;;
70953;SDS011;58618;47.490;8.736;2024-01-30T00:06:22;56.00;;;13.30;;
70953;SDS011;58618;47.490;8.736;2024-01-30T00:09:10;94.60;;;14.00;;
70953;SDS011;58618;47.490;8.736;2024-01-30T00:11:58;91.00;;;13.32;;
70953;SDS011;58618;47.490;8.736;2024-01-30T00:14:47;40.13;;;12.80;;
70953;SDS011;58618;47.490;8.736;2024-01-30T00:17:34;34.33;;;12.52;;
70953;SDS011;58618;47.490;8.736;2024-01-30T00:20:21;108.70;;;13.97;;
70953;SDS011;58618;47.490;8.736;2024-01-30T00:23:09;90.97;;;14.27;;
70953;SDS011;58618;47.490;8.736;2024-01-30T00:25:56;120.20;;;15.45;;
70953;SDS011;58618;47.490;8.736;2024-01-30T00:28:44;31.98;;;12.02;;
70953;SDS011;58618;47.490;8.736;2024-01-30T00:31:32;39.58;;;12.93;;
70953;SDS011;58618;47.490;8.736;2024-01-30T00:34:20;76.90;;;12.90;;
70953;SDS011;58618;47.490;8.736;2024-01-30T00:37:07;95.70;;;14.00;;
70953;SDS011;58618;47.490;8.736;2024-01-30T00:39:55;95.72;;;13.98;;
70953;SDS011;58618;47.490;8.736;2024-01-30T00:42:42;104.18;;;14.05;;
70953;SDS011;58618;47.490;8.736;2024-01-30T00:45:30;109.07;;;13.45;;
70953;SDS011;58618;47.490;8.736;2024-01-30T00:48:18;88.30;;;13.20;;
70953;SDS011;58618;47.490;8.736;2024-01-30T00:51:06;95.07;;;13.02;;
70953;SDS011;58618;47.490;8.736;2024-01-30T00:53:53;92.47;;;13.15;;
70953;SDS011;58618;47.490;8.736;2024-01-30T00:56:41;80.85;;;13.23;;
70953;SDS011;58618;47.490;8.736;2024-01-30T00:59:28;66.60;;;12.45;;
70953;SDS011;58618;47.490;8.736;2024-01-30T01:02:15;70.67;;;13.10;;
70953;SDS011;58618;47.490;8.736;2024-01-30T01:05:05;58.53;;;13.05;;
70953;SDS011;58618;47.490;8.736;2024-01-30T01:07:53;84.10;;;14.10;;
70953;SDS011;58618;47.490;8.736;2024-01-30T01:10:40;84.55;;;14.75;;
70953;SDS011;58618;47.490;8.736;2024-01-30T01:13:28;75.82;;;12.65;;
70953;SDS011;58618;47.490;8.736;2024-01-30T01:16:15;63.33;;;13.13;;
70953;SDS011;58618;47.490;8.736;2024-01-30T01:19:02;41.22;;;13.38;;
70953;SDS011;58618;47.490;8.736;2024-01-30T01:21:51;44.40;;;12.23;;
70953;SDS011;58618;47.490;8.736;2024-01-30T01:24:39;37.45;;;13.07;;
70953;SDS011;58618;47.490;8.736;2024-01-30T01:27:26;34.63;;;12.48;;
70953;SDS011;58618;47.490;8.736;2024-01-30T01:30:14;36.10;;;12.53;;
70953;SDS011;58618;47.490;8.736;2024-01-30T01:33:07;35.60;;;11.90;;
70953;SDS011;58618;47.490;8.736;2024-01-30T01:35:55;34.83;;;12.70;;
70953;SDS011;58618;47.490;8.736;2024-01-30T01:38:44;59.25;;;13.13;;
70953;SDS011;58618;47.490;8.736;2024-01-30T01:41:31;29.80;;;12.52;;
70953;SDS011;58618;47.490;8.736;2024-01-30T01:44:19;87.53;;;13.07;;
70953;SDS011;58618;47.490;8.736;2024-01-30T01:47:06;45.70;;;12.50;;
70953;SDS011;58618;47.490;8.736;2024-01-30T01:49:54;27.77;;;11.60;;
70953;SDS011;58618;47.490;8.736;2024-01-30T01:52:41;23.25;;;12.13;;
70953;SDS011;58618;47.490;8.736;2024-01-30T01:55:30;26.63;;;11.70;;
70953;SDS011;58618;47.490;8.736;2024-01-30T01:58:19;56.50;;;11.97;;
70953;SDS011;58618;47.490;8.736;2024-01-30T02:01:08;28.35;;;11.20;;
70953;SDS011;58618;47.490;8.736;2024-01-30T02:03:55;27.58;;;11.68;;
70953;SDS011;58618;47.490;8.736;2024-01-30T02:06:43;25.27;;;10.60;;
70953;SDS011;58618;47.490;8.736;2024-01-30T02:09:30;24.88;;;11.10;;
70953;SDS011;58618;47.490;8.736;2024-01-30T02:12:19;25.03;;;10.97;;
70953;SDS011;58618;47.490;8.736;2024-01-30T02:15:07;68.95;;;11.52;;
70953;SDS011;58618;47.490;8.736;2024-01-30T02:17:54;54.60;;;11.55;;
70953;SDS011;58618;47.490;8.736;2024-01-30T02:20:41;37.38;;;11.65;;
70953;SDS011;58618;47.490;8.736;2024-01-30T02:23:31;60.90;;;11.25;;
70953;SDS011;58618;47.490;8.736;2024-01-30T02:26:20;54.00;;;11.50;;
70953;SDS011;58618;47.490;8.736;2024-01-30T02:29:07;29.02;;;11.00;;
70953;SDS011;58618;47.490;8.736;2024-01-30T02:31:55;34.08;;;10.45;;
70953;SDS011;58618;47.490;8.736;2024-01-30T02:34:42;31.85;;;10.43;;
70953;SDS011;58618;47.490;8.736;2024-01-30T02:37:30;41.03;;;11.35;;
70953;SDS011;58618;47.490;8.736;2024-01-30T02:40:18;37.17;;;10.70;;
70953;SDS011;58618;47.490;8.736;2024-01-30T02:43:06;34.03;;;11.60;;
70953;SDS011;58618;47.490;8.736;2024-01-30T02:45:53;25.58;;;11.02;;
70953;SDS011;58618;47.490;8.736;2024-01-30T02:48:40;16.52;;;10.80;;
70953;SDS011;58618;47.490;8.736;2024-01-30T02:51:28;18.50;;;10.55;;
70953;SDS011;58618;47.490;8.736;2024-01-30T02:54:15;25.23;;;10.20;;
70953;SDS011;58618;47.490;8.736;2024-01-30T02:57:04;33.95;;;10.93;;
70953;SDS011;58618;47.490;8.736;2024-01-30T02:59:51;40.75;;;11.10;;
70953;SDS011;58618;47.490;8.736;2024-01-30T03:02:39;44.83;;;11.30;;
70953;SDS011;58618;47.490;8.736;2024-01-30T03:05:26;52.35;;;11.30;;
70953;SDS011;58618;47.490;8.736;2024-01-30T03:08:13;28.07;;;11.77;;
70953;SDS011;58618;47.490;8.736;2024-01-30T03:11:01;103.30;;;13.48;;
70953;SDS011;58618;47.490;8.736;2024-01-30T03:13:50;84.03;;;13.65;;
70953;SDS011;58618;47.490;8.736;2024-01-30T03:16:37;38.72;;;12.30;;
70953;SDS011;58618;47.490;8.736;2024-01-30T03:19:24;65.75;;;12.02;;
70953;SDS011;58618;47.490;8.736;2024-01-30T03:22:12;38.27;;;11.63;;
70953;SDS011;58618;47.490;8.736;2024-01-30T03:24:59;25.70;;;10.95;;
70953;SDS011;58618;47.490;8.736;2024-01-30T03:27:47;26.10;;;11.30;;
70953;SDS011;58618;47.490;8.736;2024-01-30T03:30:36;44.95;;;12.30;;
70953;SDS011;58618;47.490;8.736;2024-01-30T03:33:23;31.00;;;11.13;;
70953;SDS011;58618;47.490;8.736;2024-01-30T03:36:10;27.03;;;10.57;;
70953;SDS011;58618;47.490;8.736;2024-01-30T03:38:58;29.60;;;11.15;;
70953;SDS011;58618;47.490;8.736;2024-01-30T03:41:45;32.30;;;10.38;;
70953;SDS011;58618;47.490;8.736;2024-01-30T03:44:33;28.92;;;10.57;;
70953;SDS011;58618;47.490;8.736;2024-01-30T03:47:21;41.75;;;11.20;;
70953;SDS011;58618;47.490;8.736;2024-01-30T03:50:09;22.10;;;11.07;;
70953;SDS011;58618;47.490;8.736;2024-01-30T03:52:56;21.52;;;10.63;;
70953;SDS011;58618;47.490;8.736;2024-01-30T03:55:44;22.80;;;11.00;;
70953;SDS011;58618;47.490;8.736;2024-01-30T03:58:31;23.38;;;11.07;;
70953;SDS011;58618;47.490;8.736;2024-01-30T04:01:18;25.73;;;10.80;;
70953;SDS011;58618;47.490;8.736;2024-01-30T04:04:07;27.87;;;10.97;;
70953;SDS011;58618;47.490;8.736;2024-01-30T04:06:54;52.55;;;11.10;;
70953;SDS011;58618;47.490;8.736;2024-01-30T04:09:42;19.05;;;10.32;;
70953;SDS011;58618;47.490;8.736;2024-01-30T04:12:29;30.98;;;10.88;;
70953;SDS011;58618;47.490;8.736;2024-01-30T04:15:16;38.72;;;11.95;;
70953;SDS011;58618;47.490;8.736;2024-01-30T04:18:04;17.93;;;10.10;;
70953;SDS011;58618;47.490;8.736;2024-01-30T04:20:53;28.67;;;10.95;;
70953;SDS011;58618;47.490;8.736;2024-01-30T04:23:41;36.20;;;10.93;;
70953;SDS011;58618;47.490;8.736;2024-01-30T04:26:28;44.97;;;10.93;;
70953;SDS011;58618;47.490;8.736;2024-01-30T04:29:16;17.75;;;9.80;;
70953;SDS011;58618;47.490;8.736;2024-01-30T04:32:03;29.47;;;10.60;;
70953;SDS011;58618;47.490;8.736;2024-01-30T04:34:51;23.40;;;10.63;;
70953;SDS011;58618;47.490;8.736;2024-01-30T04:37:40;39.47;;;11.02;;
70953;SDS011;58618;47.490;8.736;2024-01-30T04:40:27;59.67;;;11.10;;
70953;SDS011;58618;47.490;8.736;2024-01-30T04:43:15;31.15;;;10.20;;
70953;SDS011;58618;47.490;8.736;2024-01-30T04:46:03;34.03;;;10.87;;
70953;SDS011;58618;47.490;8.736;2024-01-30T04:48:51;27.10;;;11.25;;
70953;SDS011;58618;47.490;8.736;2024-01-30T04:51:38;42.00;;;10.85;;
70953;SDS011;58618;47.490;8.736;2024-01-30T04:54:27;32.53;;;10.65;;
70953;SDS011;58618;47.490;8.736;2024-01-30T04:57:14;63.47;;;12.38;;
70953;SDS011;58618;47.490;8.736;2024-01-30T05:00:02;41.13;;;11.57;;
70953;SDS011;58618;47.490;8.736;2024-01-30T05:02:51;52.13;;;12.85;;
70953;SDS011;58618;47.490;8.736;2024-01-30T05:05:38;51.75;;;12.73;;
70953;SDS011;58618;47.490;8.736;2024-01-30T05:08:25;46.00;;;12.77;;
70953;SDS011;58618;47.490;8.736;2024-01-30T05:11:14;68.47;;;12.70;;
70953;SDS011;58618;47.490;8.736;2024-01-30T05:14:02;75.07;;;12.73;;
70953;SDS011;58618;47.490;8.736;2024-01-30T05:16:49;120.50;;;13.40;;
70953;SDS011;58618;47.490;8.736;2024-01-30T05:19:36;97.13;;;13.20;;
70953;SDS011;58618;47.490;8.736;2024-01-30T05:22:24;110.80;;;12.57;;
70953;SDS011;58618;47.490;8.736;2024-01-30T05:25:12;98.72;;;13.27;;
70953;SDS011;58618;47.490;8.736;2024-01-30T05:28:01;90.73;;;13.03;;
70953;SDS011;58618;47.490;8.736;2024-01-30T05:30:48;91.10;;;13.10;;
70953;SDS011;58618;47.490;8.736;2024-01-30T05:33:36;84.93;;;12.57;;
70953;SDS011;58618;47.490;8.736;2024-01-30T05:36:23;103.53;;;12.85;;
70953;SDS011;58618;47.490;8.736;2024-01-30T05:39:10;117.82;;;14.13;;
70953;SDS011;58618;47.490;8.736;2024-01-30T05:41:58;66.10;;;12.80;;
70953;SDS011;58618;47.490;8.736;2024-01-30T05:44:46;76.07;;;12.95;;
70953;SDS011;58618;47.490;8.736;2024-01-30T05:47:34;32.63;;;11.27;;
70953;SDS011;58618;47.490;8.736;2024-01-30T05:50:22;58.05;;;12.48;;
70953;SDS011;58618;47.490;8.736;2024-01-30T05:53:11;62.78;;;11.63;;
70953;SDS011;58618;47.490;8.736;2024-01-30T05:55:59;50.00;;;11.17;;
70953;SDS011;58618;47.490;8.736;2024-01-30T05:58:47;48.88;;;11.00;;
70953;SDS011;58618;47.490;8.736;2024-01-30T06:01:38;49.25;;;11.32;;
70953;SDS011;58618;47.490;8.736;2024-01-30T06:04:32;43.05;;;10.80;;
70953;SDS011;58618;47.490;8.736;2024-01-30T06:07:20;41.15;;;10.20;;
70953;SDS011;58618;47.490;8.736;2024-01-30T06:10:08;36.20;;;10.53;;
70953;SDS011;58618;47.490;8.736;2024-01-30T06:12:55;26.75;;;9.98;;
70953;SDS011;58618;47.490;8.736;2024-01-30T06:15:43;26.58;;;10.00;;
70953;SDS011;58618;47.490;8.736;2024-01-30T06:18:32;18.77;;;9.88;;
70953;SDS011;58618;47.490;8.736;2024-01-30T06:21:19;16.38;;;10.02;;
70953;SDS011;58618;47.490;8.736;2024-01-30T06:24:06;15.70;;;9.00;;
70953;SDS011;58618;47.490;8.736;2024-01-30T06:26:54;16.90;;;10.18;;
70953;SDS011;58618;47.490;8.736;2024-01-30T06:29:42;17.63;;;8.93;;
70953;SDS011;58618;47.490;8.736;2024-01-30T06:32:30;14.77;;;9.25;;
70953;SDS011;58618;47.490;8.736;2024-01-30T06:35:21;14.88;;;9.10;;
70953;SDS011;58618;47.490;8.736;2024-01-30T06:38:08;14.47;;;8.83;;
70953;SDS011;58618;47.490;8.736;2024-01-30T06:40:56;12.77;;;8.05;;
70953;SDS011;58618;47.490;8.736;2024-01-30T06:43:43;14.40;;;8.75;;
70953;SDS011;58618;47.490;8.736;2024-01-30T06:46:32;15.45;;;8.50;;
70953;SDS011;58618;47.490;8.736;2024-01-30T06:49:19;15.02;;;8.90;;
70953;SDS011;58618;47.490;8.736;2024-01-30T06:52:09;15.63;;;9.07;;
70953;SDS011;58618;47.490;8.736;2024-01-30T06:54:56;13.15;;;8.13;;
70953;SDS011;58618;47.490;8.736;2024-01-30T06:57:44;12.18;;;7.82;;
70953;SDS011;58618;47.490;8.736;2024-01-30T07:00:31;11.88;;;7.75;;
70953;SDS011;58618;47.490;8.736;2024-01-30T07:03:19;11.90;;;7.22;;
70953;SDS011;58618;47.490;8.736;2024-01-30T07:06:06;12.83;;;7.73;;
70953;SDS011;58618;47.490;8.736;2024-01-30T07:08:55;13.07;;;8.25;;
70953;SDS011;58618;47.490;8.736;2024-01-30T07:11:42;12.10;;;7.60;;
70953;SDS011;58618;47.490;8.736;2024-01-30T07:14:29;11.35;;;6.97;;
70953;SDS011;58618;47.490;8.736;2024-01-30T07:17:17;11.63;;;7.82;;
70953;SDS011;58618;47.490;8.736;2024-01-30T07:20:05;12.13;;;8.17;;
70953;SDS011;58618;47.490;8.736;2024-01-30T07:22:53;13.48;;;8.43;;
70953;SDS011;58618;47.490;8.736;2024-01-30T07:25:42;14.80;;;8.90;;
70953;SDS011;58618;47.490;8.736;2024-01-30T07:28:29;14.38;;;9.30;;
70953;SDS011;58618;47.490;8.736;2024-01-30T07:31:17;16.23;;;9.90;;
70953;SDS011;58618;47.490;8.736;2024-01-30T07:34:06;14.30;;;9.40;;
70953;SDS011;58618;47.490;8.736;2024-01-30T07:36:53;14.43;;;9.40;;
70953;SDS011;58618;47.490;8.736;2024-01-30T07:39:41;16.27;;;9.48;;
70953;SDS011;58618;47.490;8.736;2024-01-30T07:42:30;15.93;;;9.70;;
70953;SDS011;58618;47.490;8.736;2024-01-30T07:45:17;13.43;;;8.73;;
70953;SDS011;58618;47.490;8.736;2024-01-30T07:48:08;12.43;;;7.43;;
70953;SDS011;58618;47.490;8.736;2024-01-30T07:50:55;11.77;;;7.30;;
70953;SDS011;58618;47.490;8.736;2024-01-30T07:53:42;11.82;;;7.80;;
70953;SDS011;58618;47.490;8.736;2024-01-30T07:56:30;15.18;;;9.48;;
70953;SDS011;58618;47.490;8.736;2024-01-30T07:59:19;13.60;;;8.35;;
70953;SDS011;58618;47.490;8.736;2024-01-30T08:02:11;12.73;;;7.67;;
70953;SDS011;58618;47.490;8.736;2024-01-30T08:04:59;12.05;;;6.97;;
70953;SDS011;58618;47.490;8.736;2024-01-30T08:07:46;10.23;;;7.32;;
70953;SDS011;58618;47.490;8.736;2024-01-30T08:10:33;12.20;;;7.80;;
70953;SDS011;58618;47.490;8.736;2024-01-30T08:13:21;12.40;;;8.05;;
70953;SDS011;58618;47.490;8.736;2024-01-30T08:16:09;11.37;;;6.50;;
70953;SDS011;58618;47.490;8.736;2024-01-30T08:18:57;10.88;;;7.10;;
70953;SDS011;58618;47.490;8.736;2024-01-30T08:21:44;12.52;;;7.70;;
70953;SDS011;58618;47.490;8.736;2024-01-30T08:24:32;12.57;;;7.80;;
70953;SDS011;58618;47.490;8.736;2024-01-30T08:27:19;13.50;;;8.30;;
70953;SDS011;58618;47.490;8.736;2024-01-30T08:30:07;13.30;;;8.50;;
70953;SDS011;58618;47.490;8.736;2024-01-30T08:32:56;14.00;;;8.00;;
70953;SDS011;58618;47.490;8.736;2024-01-30T08:35:43;17.25;;;8.65;;
70953;SDS011;58618;47.490;8.736;2024-01-30T08:38:31;9.85;;;6.63;;
70953;SDS011;58618;47.490;8.736;2024-01-30T08:41:18;12.27;;;7.90;;
70953;SDS011;58618;47.490;8.736;2024-01-30T08:44:05;12.33;;;7.63;;
70953;SDS011;58618;47.490;8.736;2024-01-30T08:46:53;13.07;;;8.25;;
70953;SDS011;58618;47.490;8.736;2024-01-30T08:49:42;12.00;;;8.00;;
70953;SDS011;58618;47.490;8.736;2024-01-30T08:52:30;13.23;;;7.95;;
70953;SDS011;58618;47.490;8.736;2024-01-30T08:55:18;12.57;;;8.05;;
70953;SDS011;58618;47.490;8.736;2024-01-30T08:58:06;15.67;;;9.47;;
70953;SDS011;58618;47.490;8.736;2024-01-30T09:00:53;14.80;;;8.50;;
70953;SDS011;58618;47.490;8.736;2024-01-30T09:03:41;14.38;;;8.88;;
70953;SDS011;58618;47.490;8.736;2024-01-30T09:06:32;14.73;;;8.68;;
70953;SDS011;58618;47.490;8.736;2024-01-30T09:09:20;13.60;;;7.97;;
70953;SDS011;58618;47.490;8.736;2024-01-30T09:12:07;14.07;;;9.07;;
70953;SDS011;58618;47.490;8.736;2024-01-30T09:14:57;16.27;;;9.93;;
70953;SDS011;58618;47.490;8.736;2024-01-30T09:17:45;18.20;;;9.63;;
70953;SDS011;58618;47.490;8.736;2024-01-30T09:20:32;15.57;;;9.85;;
70953;SDS011;58618;47.490;8.736;2024-01-30T09:23:21;21.65;;;10.23;;
70953;SDS011;58618;47.490;8.736;2024-01-30T09:26:08;20.83;;;10.27;;
70953;SDS011;58618;47.490;8.736;2024-01-30T09:28:56;15.73;;;9.75;;
70953;SDS011;58618;47.490;8.736;2024-01-30T09:31:43;17.52;;;9.75;;
70953;SDS011;58618;47.490;8.736;2024-01-30T09:34:31;15.25;;;9.32;;
70953;SDS011;58618;47.490;8.736;2024-01-30T09:37:18;15.55;;;9.73;;
70953;SDS011;58618;47.490;8.736;2024-01-30T09:40:08;13.20;;;8.97;;
70953;SDS011;58618;47.490;8.736;2024-01-30T09:42:56;14.15;;;9.13;;
70953;SDS011;58618;47.490;8.736;2024-01-30T09:45:45;14.82;;;9.60;;
70953;SDS011;58618;47.490;8.736;2024-01-30T09:48:35;16.33;;;9.65;;
70953;SDS011;58618;47.490;8.736;2024-01-30T09:51:23;20.02;;;9.65;;
70953;SDS011;58618;47.490;8.736;2024-01-30T09:54:12;17.17;;;10.20;;
70953;SDS011;58618;47.490;8.736;2024-01-30T09:57:02;15.73;;;9.70;;
70953;SDS011;58618;47.490;8.736;2024-01-30T09:59:50;17.48;;;9.32;;
70953;SDS011;58618;47.490;8.736;2024-01-30T10:02:39;16.52;;;9.70;;
70953;SDS011;58618;47.490;8.736;2024-01-30T10:05:27;16.13;;;9.40;;
70953;SDS011;58618;47.490;8.736;2024-01-30T10:08:19;14.63;;;9.67;;
70953;SDS011;58618;47.490;8.736;2024-01-30T10:11:07;16.13;;;10.52;;
70953;SDS011;58618;47.490;8.736;2024-01-30T10:13:55;16.40;;;10.32;;
70953;SDS011;58618;47.490;8.736;2024-01-30T10:16:45;15.68;;;10.10;;
70953;SDS011;58618;47.490;8.736;2024-01-30T10:19:33;15.57;;;10.35;;
70953;SDS011;58618;47.490;8.736;2024-01-30T10:22:21;17.70;;;10.80;;
70953;SDS011;58618;47.490;8.736;2024-01-30T10:25:09;17.48;;;11.38;;
70953;SDS011;58618;47.490;8.736;2024-01-30T10:27:56;17.65;;;11.48;;
70953;SDS011;58618;47.490;8.736;2024-01-30T10:30:45;17.23;;;10.70;;
70953;SDS011;58618;47.490;8.736;2024-01-30T10:33:33;16.58;;;10.95;;
70953;SDS011;58618;47.490;8.736;2024-01-30T10:36:20;18.07;;;11.60;;
70953;SDS011;58618;47.490;8.736;2024-01-30T10:39:14;17.35;;;11.05;;
70953;SDS011;58618;47.490;8.736;2024-01-30T10:42:05;15.60;;;10.93;;
70953;SDS011;58618;47.490;8.736;2024-01-30T10:44:57;16.45;;;11.15;;
70953;SDS011;58618;47.490;8.736;2024-01-30T10:47:52;15.68;;;10.98;;
70953;SDS011;58618;47.490;8.736;2024-01-30T10:50:42;15.87;;;10.90;;
70953;SDS011;58618;47.490;8.736;2024-01-30T10:53:29;16.88;;;10.13;;
70953;SDS011;58618;47.490;8.736;2024-01-30T10:56:18;15.75;;;10.85;;
70953;SDS011;58618;47.490;8.736;2024-01-30T10:59:08;16.23;;;9.65;;
70953;SDS011;58618;47.490;8.736;2024-01-30T11:01:56;14.85;;;9.57;;
70953;SDS011;58618;47.490;8.736;2024-01-30T11:04:45;14.00;;;9.10;;
70953;SDS011;58618;47.490;8.736;2024-01-30T11:07:34;16.38;;;9.32;;
70953;SDS011;58618;47.490;8.736;2024-01-30T11:10:21;14.40;;;9.00;;
70953;SDS011;58618;47.490;8.736;2024-01-30T11:13:13;14.40;;;9.70;;
70953;SDS011;58618;47.490;8.736;2024-01-30T11:16:00;13.13;;;8.73;;
70953;SDS011;58618;47.490;8.736;2024-01-30T11:18:50;16.47;;;9.63;;
70953;SDS011;58618;47.490;8.736;2024-01-30T11:21:42;15.77;;;10.20;;
70953;SDS011;58618;47.490;8.736;2024-01-30T11:24:29;15.18;;;9.93;;
70953;SDS011;58618;47.490;8.736;2024-01-30T11:27:17;14.52;;;9.98;;
70953;SDS011;58618;47.490;8.736;2024-01-30T11:30:05;20.27;;;10.05;;
70953;SDS011;58618;47.490;8.736;2024-01-30T11:33:00;12.37;;;9.13;;
70953;SDS011;58618;47.490;8.736;2024-01-30T11:35:48;11.73;;;8.55;;
70953;SDS011;58618;47.490;8.736;2024-01-30T11:38:37;13.63;;;8.73;;
70953;SDS011;58618;47.490;8.736;2024-01-30T11:41:24;12.73;;;8.75;;
70953;SDS011;58618;47.490;8.736;2024-01-30T11:44:12;13.02;;;8.98;;
70953;SDS011;58618;47.490;8.736;2024-01-30T11:46:59;13.73;;;9.23;;
70953;SDS011;58618;47.490;8.736;2024-01-30T11:49:48;13.23;;;8.63;;
70953;SDS011;58618;47.490;8.736;2024-01-30T11:52:36;13.27;;;9.02;;
70953;SDS011;58618;47.490;8.736;2024-01-30T11:55:25;14.90;;;9.65;;
70953;SDS011;58618;47.490;8.736;2024-01-30T11:58:12;13.27;;;9.55;;
70953;SDS011;58618;47.490;8.736;2024-01-30T12:01:00;13.10;;;9.03;;
70953;SDS011;58618;47.490;8.736;2024-01-30T12:03:49;11.82;;;9.23;;
70953;SDS011;58618;47.490;8.736;2024-01-30T12:06:36;12.70;;;9.10;;
70953;SDS011;58618;47.490;8.736;2024-01-30T12:09:24;12.15;;;8.50;;
70953;SDS011;58618;47.490;8.736;2024-01-30T12:12:14;13.07;;;8.43;;
70953;SDS011;58618;47.490;8.736;2024-01-30T12:15:02;10.67;;;8.00;;
70953;SDS011;58618;47.490;8.736;2024-01-30T12:17:50;13.73;;;7.85;;
70953;SDS011;58618;47.490;8.736;2024-01-30T12:20:37;11.93;;;8.55;;
70953;SDS011;58618;47.490;8.736;2024-01-30T12:23:25;13.98;;;8.32;;
70953;SDS011;58618;47.490;8.736;2024-01-30T12:26:13;12.55;;;8.18;;
70953;SDS011;58618;47.490;8.736;2024-01-30T12:29:03;12.33;;;8.37;;
70953;SDS011;58618;47.490;8.736;2024-01-30T12:31:52;12.45;;;9.23;;
70953;SDS011;58618;47.490;8.736;2024-01-30T12:34:40;14.75;;;8.68;;
70953;SDS011;58618;47.490;8.736;2024-01-30T12:37:29;12.70;;;8.40;;
70953;SDS011;58618;47.490;8.736;2024-01-30T12:40:16;14.70;;;8.10;;
70953;SDS011;58618;47.490;8.736;2024-01-30T12:43:04;12.77;;;8.10;;
70953;SDS011;58618;47.490;8.736;2024-01-30T12:45:53;11.55;;;8.18;;
70953;SDS011;58618;47.490;8.736;2024-01-30T12:48:41;13.63;;;8.50;;
70953;SDS011;58618;47.490;8.736;2024-01-30T12:51:28;11.25;;;8.40;;
70953;SDS011;58618;47.490;8.736;2024-01-30T12:54:15;11.75;;;8.30;;
70953;SDS011;58618;47.490;8.736;2024-01-30T12:57:03;10.90;;;8.07;;
70953;SDS011;58618;47.490;8.736;2024-01-30T12:59:51;10.60;;;8.18;;
70953;SDS011;58618;47.490;8.736;2024-01-30T13:02:40;11.63;;;8.85;;
70953;SDS011;58618;47.490;8.736;2024-01-30T13:05:28;13.00;;;9.30;;
70953;SDS011;58618;47.490;8.736;2024-01-30T13:08:16;11.18;;;8.63;;
70953;SDS011;58618;47.490;8.736;2024-01-30T13:11:03;12.53;;;8.37;;
70953;SDS011;58618;47.490;8.736;2024-01-30T13:13:51;12.30;;;8.88;;
70953;SDS011;58618;47.490;8.736;2024-01-30T13:16:38;12.85;;;8.50;;
70953;SDS011;58618;47.490;8.736;2024-01-30T13:19:27;12.23;;;8.00;;
70953;SDS011;58618;47.490;8.736;2024-01-30T13:22:14;10.90;;;8.10;;
70953;SDS011;58618;47.490;8.736;2024-01-30T13:25:02;11.60;;;8.27;;
70953;SDS011;58618;47.490;8.736;2024-01-30T13:27:49;12.48;;;7.80;;
70953;SDS011;58618;47.490;8.736;2024-01-30T13:30:37;11.85;;;8.10;;
70953;SDS011;58618;47.490;8.736;2024-01-30T13:33:26;11.05;;;8.00;;
70953;SDS011;58618;47.490;8.736;2024-01-30T13:36:15;11.48;;;7.40;;
70953;SDS011;58618;47.490;8.736;2024-01-30T13:39:02;11.00;;;8.13;;
70953;SDS011;58618;47.490;8.736;2024-01-30T13:41:51;10.77;;;8.40;;
70953;SDS011;58618;47.490;8.736;2024-01-30T13:44:38;11.38;;;8.18;;
70953;SDS011;58618;47.490;8.736;2024-01-30T13:47:25;12.32;;;7.95;;
70953;SDS011;58618;47.490;8.736;2024-01-30T13:50:13;13.18;;;7.90;;
70953;SDS011;58618;47.490;8.736;2024-01-30T13:53:03;10.73;;;7.33;;
70953;SDS011;58618;47.490;8.736;2024-01-30T13:55:51;12.23;;;8.13;;
70953;SDS011;58618;47.490;8.736;2024-01-30T13:58:38;13.07;;;8.52;;
70953;SDS011;58618;47.490;8.736;2024-01-30T14:01:26;11.15;;;7.90;;
70953;SDS011;58618;47.490;8.736;2024-01-30T14:04:13;11.10;;;8.38;;
70953;SDS011;58618;47.490;8.736;2024-01-30T14:07:01;11.47;;;8.00;;
70953;SDS011;58618;47.490;8.736;2024-01-30T14:09:50;12.43;;;7.80;;
70953;SDS011;58618;47.490;8.736;2024-01-30T14:12:37;12.43;;;7.53;;
70953;SDS011;58618;47.490;8.736;2024-01-30T14:15:24;11.20;;;7.68;;
70953;SDS011;58618;47.490;8.736;2024-01-30T14:18:12;10.80;;;7.70;;
70953;SDS011;58618;47.490;8.736;2024-01-30T14:21:00;11.30;;;6.93;;
70953;SDS011;58618;47.490;8.736;2024-01-30T14:23:47;13.10;;;7.00;;
70953;SDS011;58618;47.490;8.736;2024-01-30T14:26:36;11.38;;;7.78;;
70953;SDS011;58618;47.490;8.736;2024-01-30T14:29:23;9.32;;;6.18;;
70953;SDS011;58618;47.490;8.736;2024-01-30T14:32:11;9.02;;;6.00;;
70953;SDS011;58618;47.490;8.736;2024-01-30T14:34:58;8.40;;;5.67;;
70953;SDS011;58618;47.490;8.736;2024-01-30T14:37:45;9.82;;;6.63;;
70953;SDS011;58618;47.490;8.736;2024-01-30T14:40:33;9.63;;;5.40;;
70953;SDS011;58618;47.490;8.736;2024-01-30T14:43:21;9.23;;;5.97;;
70953;SDS011;58618;47.490;8.736;2024-01-30T14:46:09;10.15;;;5.85;;
70953;SDS011;58618;47.490;8.736;2024-01-30T14:48:57;8.50;;;5.53;;
70953;SDS011;58618;47.490;8.736;2024-01-30T14:51:45;10.55;;;5.88;;
70953;SDS011;58618;47.490;8.736;2024-01-30T14:54:32;8.75;;;5.40;;
70953;SDS011;58618;47.490;8.736;2024-01-30T14:57:20;10.40;;;6.28;;
70953;SDS011;58618;47.490;8.736;2024-01-30T15:00:09;9.18;;;6.05;;
70953;SDS011;58618;47.490;8.736;2024-01-30T15:02:57;8.97;;;5.50;;
70953;SDS011;58618;47.490;8.736;2024-01-30T15:05:44;9.98;;;5.20;;
70953;SDS011;58618;47.490;8.736;2024-01-30T15:08:32;10.15;;;5.75;;
70953;SDS011;58618;47.490;8.736;2024-01-30T15:11:19;8.15;;;5.60;;
70953;SDS011;58618;47.490;8.736;2024-01-30T15:14:07;10.10;;;6.25;;
70953;SDS011;58618;47.490;8.736;2024-01-30T15:16:56;10.30;;;6.30;;
70953;SDS011;58618;47.490;8.736;2024-01-30T15:19:44;9.43;;;6.13;;
70953;SDS011;58618;47.490;8.736;2024-01-30T15:22:31;8.07;;;5.53;;
70953;SDS011;58618;47.490;8.736;2024-01-30T15:25:19;9.80;;;6.50;;
70953;SDS011;58618;47.490;8.736;2024-01-30T15:28:06;11.38;;;6.38;;
70953;SDS011;58618;47.490;8.736;2024-01-30T15:30:55;11.87;;;6.40;;
70953;SDS011;58618;47.490;8.736;2024-01-30T15:33:46;12.50;;;6.80;;
70953;SDS011;58618;47.490;8.736;2024-01-30T15:36:34;11.75;;;6.82;;
70953;SDS011;58618;47.490;8.736;2024-01-30T15:39:21;10.02;;;6.65;;
70953;SDS011;58618;47.490;8.736;2024-01-30T15:42:09;11.48;;;6.25;;
70953;SDS011;58618;47.490;8.736;2024-01-30T15:44:56;10.67;;;6.60;;
70953;SDS011;58618;47.490;8.736;2024-01-30T15:47:44;11.60;;;7.00;;
70953;SDS011;58618;47.490;8.736;2024-01-30T15:50:33;10.75;;;6.80;;
70953;SDS011;58618;47.490;8.736;2024-01-30T15:53:21;11.77;;;6.85;;
70953;SDS011;58618;47.490;8.736;2024-01-30T15:56:08;11.55;;;6.47;;
70953;SDS011;58618;47.490;8.736;2024-01-30T15:58:56;43.43;;;32.40;;
70953;SDS011;58618;47.490;8.736;2024-01-30T16:01:43;30.58;;;23.10;;
70953;SDS011;58618;47.490;8.736;2024-01-30T16:04:33;16.50;;;10.32;;
70953;SDS011;58618;47.490;8.736;2024-01-30T16:07:22;11.55;;;6.72;;
70953;SDS011;58618;47.490;8.736;2024-01-30T16:10:10;10.57;;;6.15;;
70953;SDS011;58618;47.490;8.736;2024-01-30T16:13:02;8.87;;;6.17;;
70953;SDS011;58618;47.490;8.736;2024-01-30T16:15:49;10.50;;;6.05;;
70953;SDS011;58618;47.490;8.736;2024-01-30T16:18:37;10.95;;;6.53;;
70953;SDS011;58618;47.490;8.736;2024-01-30T16:21:25;12.00;;;7.60;;
70953;SDS011;58618;47.490;8.736;2024-01-30T16:24:14;14.27;;;6.75;;
70953;SDS011;58618;47.490;8.736;2024-01-30T16:27:01;11.73;;;6.53;;
70953;SDS011;58618;47.490;8.736;2024-01-30T16:29:49;12.52;;;7.05;;